createdAt,value
2022-08-17T00:00:43.644Z,3.60
2022-08-17T00:01:24.152Z,3.40
2022-08-17T00:02:01.484Z,3.75
2022-08-17T00:03:02.986Z,3.88
2022-08-17T00:03:43.738Z,4.10
2022-08-17T00:04:19.412Z,3.80
2022-08-17T00:04:51.543Z,3.70
2022-08-17T00:05:23.630Z,4.03
2022-08-17T00:06:11.914Z,3.92
2022-08-17T00:06:43.785Z,4.07
2022-08-17T00:07:17.935Z,3.85
2022-08-17T00:07:49.944Z,3.47
2022-08-17T00:08:25.240Z,3.55
2022-08-17T00:09:02.901Z,4.13
2022-08-17T00:09:34.688Z,3.80
2022-08-17T00:10:07.080Z,4.10
2022-08-17T00:10:39.601Z,3.90
2022-08-17T00:11:37.145Z,3.75
2022-08-17T00:12:41.309Z,3.63
2022-08-17T00:13:06.845Z,3.75
2022-08-17T00:13:44.113Z,3.63
2022-08-17T00:14:18.540Z,3.95
2022-08-17T00:14:50.368Z,3.50
2022-08-17T00:15:23.356Z,3.47
2022-08-17T00:16:00.395Z,4.00
2022-08-17T00:16:53.411Z,4.03
2022-08-17T00:17:28.190Z,4.35
2022-08-17T00:18:00.184Z,3.75
2022-08-17T00:19:02.169Z,3.42
2022-08-17T00:19:26.396Z,3.80
2022-08-17T00:19:59.971Z,3.63
2022-08-17T00:20:33.559Z,3.80
2022-08-17T00:21:10.694Z,4.53
2022-08-17T00:22:32.622Z,4.22
2022-08-17T00:22:39.163Z,4.10
2022-08-17T00:23:17.137Z,3.80
2022-08-17T00:23:49.801Z,4.25
2022-08-17T00:24:24.275Z,3.80
2022-08-17T00:24:56.133Z,4.10
2022-08-17T00:25:28.167Z,3.90
2022-08-17T00:26:00.635Z,3.40
2022-08-17T00:26:43.144Z,3.95
2022-08-17T00:27:18.250Z,3.83
2022-08-17T00:27:50.161Z,3.78
2022-08-17T00:28:22.246Z,4.07
2022-08-17T00:28:54.612Z,3.80
2022-08-17T00:29:26.447Z,3.95
2022-08-17T00:29:58.439Z,4.30
2022-08-17T00:30:30.798Z,4.00
2022-08-17T00:31:23.283Z,4.15
2022-08-17T00:31:55.169Z,4.18
2022-08-17T00:33:22.894Z,4.88
2022-08-17T00:33:24.069Z,4.13
2022-08-17T00:33:56.257Z,4.47
2022-08-17T00:34:28.172Z,4.07
2022-08-17T00:35:06.527Z,4.47
2022-08-17T00:35:40.317Z,4.90
2022-08-17T00:36:14.212Z,4.32
2022-08-17T00:36:46.094Z,5.38
2022-08-17T00:37:17.911Z,4.65
2022-08-17T00:37:51.846Z,4.22
2022-08-17T00:38:24.728Z,4.82
2022-08-17T00:38:56.746Z,4.28
2022-08-17T00:39:28.620Z,4.15
2022-08-17T00:40:00.492Z,4.13
2022-08-17T00:40:44.548Z,4.15
2022-08-17T00:41:19.792Z,4.35
2022-08-17T00:41:52.239Z,4.22
2022-08-17T00:42:27.610Z,4.10
2022-08-17T00:43:22.368Z,5.15
2022-08-17T00:43:58.422Z,5.40
2022-08-17T00:44:30.349Z,4.50
2022-08-17T00:45:06.064Z,4.03
2022-08-17T00:45:45.798Z,4.32
2022-08-17T00:46:21.850Z,4.55
2022-08-17T00:46:53.876Z,5.18
2022-08-17T00:47:25.870Z,5.35
2022-08-17T00:47:57.653Z,5.00
2022-08-17T00:48:30.894Z,5.05
2022-08-17T00:49:04.918Z,3.92
2022-08-17T00:49:36.732Z,4.40
2022-08-17T00:50:11.831Z,4.25
2022-08-17T00:50:55.676Z,4.03
2022-08-17T00:51:37.176Z,3.90
2022-08-17T00:52:15.644Z,3.83
2022-08-17T00:52:55.600Z,4.18
2022-08-17T00:53:30.392Z,4.53
2022-08-17T00:54:13.195Z,4.57
2022-08-17T00:54:48.451Z,4.40
2022-08-17T00:55:20.936Z,4.40
2022-08-17T00:55:53.261Z,4.13
2022-08-17T00:56:33.050Z,3.65
2022-08-17T00:57:08.610Z,4.65
2022-08-17T00:57:45.305Z,4.38
2022-08-17T00:58:17.603Z,4.15
2022-08-17T00:59:09.984Z,3.67
2022-08-17T00:59:58.629Z,3.55
2022-08-17T01:00:42.110Z,4.05
2022-08-17T01:01:21.302Z,4.03
2022-08-17T01:01:53.923Z,3.90
2022-08-17T01:02:28.121Z,4.20
2022-08-17T01:03:06.733Z,3.70
2022-08-17T01:03:39.291Z,3.58
2022-08-17T01:04:12.487Z,4.20
2022-08-17T01:04:48.102Z,4.68
2022-08-17T01:05:25.311Z,4.75
2022-08-17T01:06:02.011Z,4.65
2022-08-17T01:06:34.752Z,3.90
2022-08-17T01:07:07.513Z,4.50
2022-08-17T01:07:39.603Z,4.55
2022-08-17T01:08:15.273Z,4.00
2022-08-17T01:08:47.474Z,4.07
2022-08-17T01:09:20.297Z,4.38
2022-08-17T01:09:52.101Z,4.45
2022-08-17T01:10:59.305Z,4.15
2022-08-17T01:11:22.345Z,4.63
2022-08-17T01:11:54.202Z,5.15
2022-08-17T01:12:26.041Z,4.40
2022-08-17T01:12:59.915Z,4.05
2022-08-17T01:13:40.706Z,4.55
2022-08-17T01:14:13.607Z,4.07
2022-08-17T01:14:45.417Z,4.38
2022-08-17T01:15:17.313Z,3.85
2022-08-17T01:15:55.104Z,4.82
2022-08-17T01:16:30.231Z,4.65
2022-08-17T01:17:02.112Z,4.68
2022-08-17T01:17:34.522Z,4.25
2022-08-17T01:18:08.306Z,4.43
2022-08-17T01:18:42.850Z,4.40
2022-08-17T01:19:20.202Z,4.45
2022-08-17T01:19:52.075Z,5.00
2022-08-17T01:20:23.935Z,4.38
2022-08-17T01:21:03.212Z,4.68
2022-08-17T01:21:43.759Z,5.22
2022-08-17T01:22:16.545Z,5.15
2022-08-17T01:22:48.745Z,4.50
2022-08-17T01:23:24.003Z,4.60
2022-08-17T01:23:56.319Z,4.65
2022-08-17T01:24:28.367Z,4.35
2022-08-17T01:25:01.851Z,4.88
2022-08-17T01:25:35.110Z,5.25
2022-08-17T01:26:06.918Z,4.90
2022-08-17T01:26:42.226Z,4.43
2022-08-17T01:27:18.428Z,4.63
2022-08-17T01:27:52.605Z,4.75
2022-08-17T01:28:52.404Z,4.40
2022-08-17T01:29:21.913Z,4.63
2022-08-17T01:29:58.654Z,5.35
2022-08-17T01:30:58.824Z,5.30
2022-08-17T01:31:25.496Z,4.75
2022-08-17T01:32:03.659Z,4.90
2022-08-17T01:32:35.565Z,4.43
2022-08-17T01:33:11.379Z,4.90
2022-08-17T01:33:43.348Z,4.95
2022-08-17T01:34:17.444Z,5.47
2022-08-17T01:34:50.913Z,4.57
2022-08-17T01:35:22.898Z,4.88
2022-08-17T01:35:54.989Z,4.25
2022-08-17T01:36:27.964Z,4.40
2022-08-17T01:37:00.644Z,5.07
2022-08-17T01:37:36.709Z,5.22
2022-08-17T01:38:09.511Z,5.13
2022-08-17T01:38:41.706Z,4.78
2022-08-17T01:39:24.446Z,4.60
2022-08-17T01:40:06.760Z,5.43
2022-08-17T01:40:49.555Z,4.45
2022-08-17T01:42:06.399Z,4.80
2022-08-17T01:42:56.684Z,5.07
2022-08-17T01:43:34.567Z,5.30
2022-08-17T01:44:07.810Z,5.18
2022-08-17T01:44:39.762Z,4.95
2022-08-17T01:45:18.929Z,5.40
2022-08-17T01:46:02.619Z,4.70
2022-08-17T01:46:37.033Z,5.00
2022-08-17T01:47:08.917Z,5.25
2022-08-17T01:47:41.726Z,5.30
2022-08-17T01:48:14.399Z,5.07
2022-08-17T01:48:47.592Z,5.20
2022-08-17T01:49:19.655Z,4.72
2022-08-17T01:49:51.489Z,5.22
2022-08-17T01:50:29.843Z,4.13
2022-08-17T01:51:01.800Z,4.63
2022-08-17T01:51:34.677Z,5.13
2022-08-17T01:52:11.161Z,4.72
2022-08-17T01:52:45.598Z,4.90
2022-08-17T01:53:36.744Z,5.20
2022-08-17T01:54:12.761Z,4.82
2022-08-17T01:54:47.492Z,4.40
2022-08-17T01:55:27.491Z,4.35
2022-08-17T01:56:05.380Z,4.30
2022-08-17T01:56:43.206Z,5.35
2022-08-17T01:57:19.018Z,4.68
2022-08-17T01:57:50.828Z,5.30
2022-08-17T01:58:23.021Z,4.97
2022-08-17T01:58:55.862Z,4.90
2022-08-17T01:59:27.672Z,4.85
2022-08-17T02:00:01.922Z,5.38
2022-08-17T02:01:00.662Z,5.00
2022-08-17T02:01:35.286Z,5.03
2022-08-17T02:02:07.495Z,4.70
2022-08-17T02:02:40.513Z,4.68
2022-08-17T02:03:13.013Z,4.28
2022-08-17T02:03:56.135Z,4.68
2022-08-17T02:04:32.474Z,4.72
2022-08-17T02:05:05.937Z,4.30
2022-08-17T02:05:37.914Z,5.07
2022-08-17T02:06:28.047Z,4.40
2022-08-17T02:07:00.232Z,4.80
2022-08-17T02:07:32.430Z,4.75
2022-08-17T02:08:37.281Z,4.53
2022-08-17T02:09:16.816Z,4.65
2022-08-17T02:09:52.721Z,5.00
2022-08-17T02:10:24.883Z,4.75
2022-08-17T02:11:11.618Z,4.68
2022-08-17T02:11:44.948Z,4.78
2022-08-17T02:12:39.024Z,4.85
2022-08-17T02:13:10.353Z,4.70
2022-08-17T02:13:44.879Z,4.60
2022-08-17T02:14:17.006Z,4.93
2022-08-17T02:14:48.987Z,5.00
2022-08-17T02:15:21.197Z,5.50
2022-08-17T02:15:53.537Z,4.60
2022-08-17T02:16:25.462Z,5.20
2022-08-17T02:16:59.609Z,4.85
2022-08-17T02:17:31.609Z,5.38
2022-08-17T02:18:05.580Z,4.88
2022-08-17T02:18:37.925Z,5.40
2022-08-17T02:19:13.563Z,4.63
2022-08-17T02:19:45.639Z,5.38
2022-08-17T02:20:41.262Z,4.55
2022-08-17T02:21:13.884Z,5.00
2022-08-17T02:21:48.305Z,5.10
2022-08-17T02:22:20.439Z,4.75
2022-08-17T02:22:52.546Z,4.90
2022-08-17T02:23:28.716Z,4.90
2022-08-17T02:24:00.988Z,4.93
2022-08-17T02:25:01.114Z,4.90
2022-08-17T02:25:32.293Z,4.78
2022-08-17T02:26:04.606Z,5.05
2022-08-17T02:26:37.196Z,4.53
2022-08-17T02:27:10.119Z,4.65
2022-08-17T02:27:45.015Z,4.22
2022-08-17T02:28:19.326Z,4.80
2022-08-17T02:28:51.284Z,4.32
2022-08-17T02:29:26.696Z,5.38
2022-08-17T02:30:00.856Z,4.88
2022-08-17T02:30:59.656Z,4.65
2022-08-17T02:31:27.337Z,5.38
2022-08-17T02:32:01.958Z,4.55
2022-08-17T02:32:33.863Z,5.28
2022-08-17T02:33:09.411Z,5.22
2022-08-17T02:33:42.450Z,5.35
2022-08-17T02:34:15.740Z,4.88
2022-08-17T02:34:47.729Z,4.88
2022-08-17T02:35:22.503Z,4.97
2022-08-17T02:35:54.516Z,5.05
2022-08-17T02:36:27.548Z,4.50
2022-08-17T02:36:59.791Z,4.88
2022-08-17T02:37:31.656Z,4.95
2022-08-17T02:38:05.212Z,5.53
2022-08-17T02:38:38.253Z,4.90
2022-08-17T02:39:11.844Z,4.70
2022-08-17T02:39:46.521Z,5.15
2022-08-17T02:40:19.078Z,4.68
2022-08-17T02:41:09.258Z,4.90
2022-08-17T02:41:41.194Z,4.80
2022-08-17T02:42:14.485Z,4.93
2022-08-17T02:42:46.578Z,4.88
2022-08-17T02:43:18.606Z,4.95
2022-08-17T02:43:51.131Z,5.68
2022-08-17T02:44:38.685Z,5.10
2022-08-17T02:45:16.057Z,4.97
2022-08-17T02:45:47.966Z,4.97
2022-08-17T02:46:19.813Z,4.82
2022-08-17T02:46:51.718Z,5.07
2022-08-17T02:47:24.110Z,4.72
2022-08-17T02:47:55.943Z,5.32
2022-08-17T02:48:31.104Z,4.60
2022-08-17T02:49:05.107Z,5.50
2022-08-17T02:49:37.522Z,5.50
2022-08-17T02:50:12.212Z,4.65
2022-08-17T02:50:44.141Z,5.00
2022-08-17T02:51:16.034Z,5.15
2022-08-17T02:51:49.944Z,4.68
2022-08-17T02:52:43.238Z,4.80
2022-08-17T02:53:13.779Z,4.80
2022-08-17T02:53:46.211Z,5.28
2022-08-17T02:54:41.827Z,5.90
2022-08-17T02:55:22.424Z,5.38
2022-08-17T02:55:54.335Z,5.03
2022-08-17T02:56:26.289Z,5.20
2022-08-17T02:56:58.128Z,5.30
2022-08-17T02:57:30.142Z,4.90
2022-08-17T02:58:03.592Z,4.65
2022-08-17T02:58:36.205Z,6.10
2022-08-17T02:59:08.340Z,5.57
2022-08-17T02:59:43.278Z,5.18
2022-08-17T03:00:28.847Z,4.82
2022-08-17T03:01:00.770Z,4.82
2022-08-17T03:01:32.688Z,5.75
2022-08-17T03:02:06.580Z,6.13
2022-08-17T03:02:43.420Z,5.43
2022-08-17T03:03:20.039Z,5.28
2022-08-17T03:03:52.725Z,6.03
2022-08-17T03:04:24.750Z,5.75
2022-08-17T03:04:56.652Z,5.00
2022-08-17T03:05:31.757Z,5.38
2022-08-17T03:06:04.870Z,5.00
2022-08-17T03:06:37.498Z,5.45
2022-08-17T03:07:09.390Z,5.05
2022-08-17T03:07:41.939Z,5.22
2022-08-17T03:08:13.904Z,4.82
2022-08-17T03:08:48.153Z,5.88
2022-08-17T03:09:20.076Z,5.45
2022-08-17T03:09:53.979Z,5.03
2022-08-17T03:10:26.838Z,5.55
2022-08-17T03:10:58.779Z,5.40
2022-08-17T03:11:30.625Z,6.97
2022-08-17T03:12:08.263Z,4.95
2022-08-17T03:12:42.183Z,5.28
2022-08-17T03:13:14.786Z,4.63
2022-08-17T03:13:46.643Z,5.43
2022-08-17T03:14:18.807Z,5.78
2022-08-17T03:14:58.420Z,7.07
2022-08-17T03:15:32.469Z,5.35
2022-08-17T03:16:04.480Z,5.30
2022-08-17T03:16:36.347Z,6.07
2022-08-17T03:17:09.965Z,5.50
2022-08-17T03:17:42.612Z,5.07
2022-08-17T03:18:19.099Z,4.90
2022-08-17T03:18:56.726Z,4.93
2022-08-17T03:19:28.636Z,5.38
2022-08-17T03:20:00.667Z,6.00
2022-08-17T03:20:33.623Z,5.68
2022-08-17T03:21:06.818Z,4.93
2022-08-17T03:21:38.630Z,4.70
2022-08-17T03:22:36.471Z,4.78
2022-08-17T03:23:03.532Z,5.70
2022-08-17T03:23:41.066Z,4.88
2022-08-17T03:24:15.327Z,4.75
2022-08-17T03:24:49.916Z,5.35
2022-08-17T03:25:26.820Z,5.40
2022-08-17T03:25:59.296Z,5.32
2022-08-17T03:26:32.302Z,5.22
2022-08-17T03:27:04.452Z,5.32
2022-08-17T03:27:36.855Z,4.88
2022-08-17T03:28:15.915Z,4.68
2022-08-17T03:28:48.816Z,5.32
2022-08-17T03:29:20.736Z,5.80
2022-08-17T03:29:53.139Z,5.00
2022-08-17T03:30:27.061Z,5.15
2022-08-17T03:30:58.909Z,5.38
2022-08-17T03:31:31.433Z,5.78
2022-08-17T03:32:12.484Z,6.05
2022-08-17T03:32:47.397Z,5.32
2022-08-17T03:33:22.213Z,5.50
2022-08-17T03:33:55.493Z,5.25
2022-08-17T03:34:27.577Z,6.13
2022-08-17T03:35:00.457Z,4.82
2022-08-17T03:35:37.559Z,4.90
2022-08-17T03:36:09.676Z,5.47
2022-08-17T03:36:41.629Z,5.03
2022-08-17T03:37:13.495Z,5.40
2022-08-17T03:37:46.036Z,5.32
2022-08-17T03:38:18.626Z,5.20
2022-08-17T03:38:51.128Z,4.75
2022-08-17T03:39:22.987Z,5.63
2022-08-17T03:39:57.645Z,4.68
2022-08-17T03:40:55.652Z,4.20
2022-08-17T03:41:22.786Z,5.05
2022-08-17T03:42:02.937Z,5.53
2022-08-17T03:42:38.069Z,5.53
2022-08-17T03:43:10.812Z,5.57
2022-08-17T03:43:45.113Z,5.05
2022-08-17T03:44:17.069Z,5.40
2022-08-17T03:44:49.927Z,5.25
2022-08-17T03:45:44.106Z,5.93
2022-08-17T03:46:35.603Z,4.97
2022-08-17T03:47:26.325Z,4.90
2022-08-17T03:48:16.739Z,5.38
2022-08-17T03:49:07.167Z,5.82
2022-08-17T03:49:57.652Z,6.20
2022-08-17T03:50:47.989Z,5.43
2022-08-17T03:51:42.482Z,6.55
2022-08-17T03:52:32.999Z,5.80
2022-08-17T03:53:27.577Z,5.75
2022-08-17T03:54:18.425Z,5.78
2022-08-17T03:55:08.774Z,4.90
2022-08-17T03:55:59.123Z,5.28
2022-08-17T03:56:43.486Z,6.43
2022-08-17T03:57:15.429Z,5.53
2022-08-17T03:57:48.960Z,5.15
2022-08-17T03:58:21.201Z,5.95
2022-08-17T03:58:53.110Z,5.57
2022-08-17T03:59:25.147Z,5.70
2022-08-17T03:59:58.090Z,5.63
2022-08-17T04:00:30.040Z,5.72
2022-08-17T04:01:02.374Z,5.20
2022-08-17T04:01:34.505Z,4.72
2022-08-17T04:02:09.733Z,6.05
2022-08-17T04:02:42.621Z,6.05
2022-08-17T04:03:14.880Z,5.38
2022-08-17T04:03:46.752Z,5.57
2022-08-17T04:04:19.925Z,4.72
2022-08-17T04:05:00.295Z,5.20
2022-08-17T04:05:32.122Z,5.47
2022-08-17T04:06:06.809Z,5.38
2022-08-17T04:06:39.830Z,5.82
2022-08-17T04:07:11.753Z,5.47
2022-08-17T04:07:43.772Z,5.22
2022-08-17T04:08:15.795Z,5.38
2022-08-17T04:08:47.650Z,6.72
2022-08-17T04:09:19.504Z,6.25
2022-08-17T04:09:52.062Z,5.32
2022-08-17T04:10:26.468Z,5.35
2022-08-17T04:11:00.143Z,5.93
2022-08-17T04:11:33.267Z,5.72
2022-08-17T04:12:06.305Z,5.10
2022-08-17T04:12:51.242Z,5.43
2022-08-17T04:13:24.834Z,5.43
2022-08-17T04:13:57.448Z,6.05
2022-08-17T04:14:33.627Z,5.85
2022-08-17T04:15:06.651Z,5.72
2022-08-17T04:15:38.613Z,5.75
2022-08-17T04:16:10.486Z,5.05
2022-08-17T04:16:42.483Z,5.40
2022-08-17T04:17:15.098Z,5.43
2022-08-17T04:17:47.809Z,5.28
2022-08-17T04:18:19.957Z,5.13
2022-08-17T04:18:52.446Z,4.88
2022-08-17T04:19:24.344Z,5.72
2022-08-17T04:19:56.748Z,6.13
2022-08-17T04:20:28.972Z,5.93
2022-08-17T04:21:00.950Z,6.15
2022-08-17T04:21:33.545Z,5.65
2022-08-17T04:22:05.730Z,5.30
2022-08-17T04:22:38.039Z,5.32
2022-08-17T04:23:16.303Z,6.05
2022-08-17T04:23:50.558Z,6.00
2022-08-17T04:24:22.401Z,5.63
2022-08-17T04:24:54.273Z,5.93
2022-08-17T04:25:33.484Z,5.90
2022-08-17T04:26:05.467Z,5.15
2022-08-17T04:26:52.489Z,5.93
2022-08-17T04:27:26.077Z,6.03
2022-08-17T04:27:58.985Z,5.75
2022-08-17T04:28:31.056Z,5.30
2022-08-17T04:29:06.380Z,5.88
2022-08-17T04:29:49.927Z,6.18
2022-08-17T04:30:29.588Z,5.50
2022-08-17T04:31:01.575Z,5.93
2022-08-17T04:31:33.997Z,6.32
2022-08-17T04:32:06.119Z,6.05
2022-08-17T04:33:05.366Z,6.05
2022-08-17T04:33:39.319Z,6.22
2022-08-17T04:34:12.499Z,5.75
2022-08-17T04:34:44.357Z,6.28
2022-08-17T04:35:25.364Z,6.53
2022-08-17T04:36:01.254Z,6.03
2022-08-17T04:36:33.458Z,6.47
2022-08-17T04:37:05.476Z,5.97
2022-08-17T04:37:37.883Z,6.15
2022-08-17T04:38:16.609Z,6.18
2022-08-17T04:38:48.620Z,5.78
2022-08-17T04:39:20.533Z,5.85
2022-08-17T04:40:12.434Z,5.68
2022-08-17T04:41:03.254Z,6.45
2022-08-17T04:41:53.778Z,6.30
2022-08-17T04:42:25.643Z,6.00
2022-08-17T04:43:07.355Z,5.97
2022-08-17T04:43:41.447Z,6.47
2022-08-17T04:44:37.196Z,6.43
2022-08-17T04:45:09.858Z,5.85
2022-08-17T04:45:55.556Z,7.10
2022-08-17T04:46:33.712Z,6.07
2022-08-17T04:47:07.165Z,5.80
2022-08-17T04:47:42.454Z,5.70
2022-08-17T04:48:17.427Z,6.53
2022-08-17T04:48:51.589Z,6.78
2022-08-17T04:49:23.477Z,6.18
2022-08-17T04:49:55.279Z,6.03
2022-08-17T04:50:27.574Z,6.22
2022-08-17T04:51:03.291Z,6.45
2022-08-17T04:51:36.926Z,7.15
2022-08-17T04:52:08.889Z,6.38
2022-08-17T04:53:02.032Z,5.65
2022-08-17T04:53:34.254Z,5.03
2022-08-17T04:54:10.007Z,6.45
2022-08-17T04:54:41.839Z,6.32
2022-08-17T04:55:15.166Z,6.25
2022-08-17T04:55:47.819Z,5.40
2022-08-17T04:56:19.892Z,5.43
2022-08-17T04:56:51.879Z,6.18
2022-08-17T04:57:23.734Z,6.68
2022-08-17T04:57:55.653Z,5.75
2022-08-17T04:58:28.061Z,6.20
2022-08-17T04:59:02.995Z,6.18
2022-08-17T04:59:34.852Z,6.07
2022-08-17T05:00:08.504Z,6.25
2022-08-17T05:00:40.312Z,6.03
2022-08-17T05:01:12.660Z,6.45
2022-08-17T05:01:46.869Z,6.10
2022-08-17T05:02:18.690Z,6.00
2022-08-17T05:02:53.179Z,5.85
2022-08-17T05:03:25.282Z,6.03
2022-08-17T05:04:02.391Z,6.18
2022-08-17T05:04:52.803Z,5.88
2022-08-17T05:05:34.039Z,5.95
2022-08-17T05:06:06.122Z,6.32
2022-08-17T05:06:37.962Z,5.18
2022-08-17T05:07:10.532Z,5.45
2022-08-17T05:07:42.828Z,5.75
2022-08-17T05:08:17.191Z,5.43
2022-08-17T05:08:49.165Z,5.85
2022-08-17T05:09:21.334Z,5.25
2022-08-17T05:09:53.364Z,5.78
2022-08-17T05:10:27.577Z,5.70
2022-08-17T05:11:00.350Z,5.85
2022-08-17T05:11:32.271Z,6.22
2022-08-17T05:12:04.489Z,6.10
2022-08-17T05:12:36.442Z,6.05
2022-08-17T05:13:15.722Z,6.50
2022-08-17T05:13:50.126Z,5.80
2022-08-17T05:14:22.451Z,6.20
2022-08-17T05:15:05.768Z,5.97
2022-08-17T05:15:44.844Z,4.72
2022-08-17T05:16:18.123Z,5.85
2022-08-17T05:16:51.104Z,6.05
2022-08-17T05:17:23.139Z,5.70
2022-08-17T05:17:55.192Z,5.15
2022-08-17T05:18:28.549Z,6.05
2022-08-17T05:19:00.483Z,5.78
2022-08-17T05:19:32.330Z,5.60
2022-08-17T05:20:04.811Z,5.15
2022-08-17T05:20:38.808Z,5.25
2022-08-17T05:21:10.787Z,5.20
2022-08-17T05:21:42.621Z,5.43
2022-08-17T05:22:14.828Z,5.70
2022-08-17T05:22:52.389Z,5.35
2022-08-17T05:23:26.709Z,5.10
2022-08-17T05:24:17.652Z,5.75
2022-08-17T05:24:58.597Z,5.78
2022-08-17T05:25:37.841Z,5.25
2022-08-17T05:26:19.875Z,5.82
2022-08-17T05:27:01.439Z,5.78
2022-08-17T05:27:38.313Z,5.55
2022-08-17T05:28:13.972Z,5.50
2022-08-17T05:28:47.958Z,5.88
2022-08-17T05:29:20.081Z,6.82
2022-08-17T05:29:52.158Z,5.70
2022-08-17T05:30:25.633Z,5.65
2022-08-17T05:31:01.367Z,5.97
2022-08-17T05:31:33.599Z,6.68
2022-08-17T05:32:38.224Z,5.82
2022-08-17T05:33:06.106Z,5.82
2022-08-17T05:33:44.425Z,6.13
2022-08-17T05:34:18.234Z,6.75
2022-08-17T05:34:50.006Z,5.63
2022-08-17T05:35:23.527Z,6.00
2022-08-17T05:35:58.193Z,6.10
2022-08-17T05:36:43.063Z,6.00
2022-08-17T05:37:16.043Z,6.18
2022-08-17T05:37:47.905Z,6.28
2022-08-17T05:38:21.828Z,6.20
2022-08-17T05:38:53.750Z,6.60
2022-08-17T05:39:25.648Z,7.28
2022-08-17T05:39:57.662Z,6.50
2022-08-17T05:40:32.957Z,6.80
2022-08-17T05:41:07.318Z,6.43
2022-08-17T05:41:39.170Z,6.80
2022-08-17T05:42:10.990Z,7.05
2022-08-17T05:42:43.560Z,7.50
2022-08-17T05:43:20.756Z,6.57
2022-08-17T05:43:56.175Z,6.93
2022-08-17T05:44:28.419Z,7.15
2022-08-17T05:45:00.490Z,7.28
2022-08-17T05:45:54.264Z,7.38
2022-08-17T05:46:28.939Z,6.93
2022-08-17T05:47:01.776Z,6.85
2022-08-17T05:47:33.756Z,7.15
2022-08-17T05:48:07.240Z,6.85
2022-08-17T05:48:43.709Z,6.97
2022-08-17T05:49:17.934Z,6.72
2022-08-17T05:49:49.928Z,7.15
2022-08-17T05:50:31.277Z,7.68
2022-08-17T05:51:33.838Z,8.07
2022-08-17T05:52:11.307Z,7.82
2022-08-17T05:53:20.633Z,8.48
2022-08-17T05:54:26.225Z,8.23
2022-08-17T05:55:03.373Z,7.63
2022-08-17T05:55:57.212Z,8.02
2022-08-17T05:56:56.476Z,7.18
2022-08-17T05:58:09.998Z,7.63
2022-08-17T05:59:11.224Z,7.80
2022-08-17T06:00:41.899Z,8.02
2022-08-17T06:01:31.570Z,7.40
2022-08-17T06:02:23.805Z,7.13
2022-08-17T06:03:18.960Z,7.45
2022-08-17T06:04:04.994Z,8.32
2022-08-17T06:05:24.800Z,6.75
2022-08-17T06:06:09.804Z,6.65
2022-08-17T06:07:23.635Z,7.45
2022-08-17T06:08:21.943Z,6.63
2022-08-17T06:09:25.792Z,6.97
2022-08-17T06:10:25.033Z,6.57
2022-08-17T06:11:09.739Z,7.32
2022-08-17T06:12:06.964Z,8.50
2022-08-17T06:13:25.201Z,7.38
2022-08-17T06:14:16.438Z,7.32
2022-08-17T06:15:26.235Z,6.97
2022-08-17T06:16:32.918Z,7.72
2022-08-17T06:17:11.356Z,7.28
2022-08-17T06:17:43.489Z,7.15
2022-08-17T06:18:19.202Z,6.53
2022-08-17T06:19:01.027Z,7.43
2022-08-17T06:19:51.966Z,7.20
2022-08-17T06:21:01.594Z,6.80
2022-08-17T06:21:37.682Z,7.20
2022-08-17T06:22:14.297Z,7.82
2022-08-17T06:22:50.193Z,8.57
2022-08-17T06:23:51.075Z,8.05
2022-08-17T06:24:34.284Z,7.35
2022-08-17T06:25:13.351Z,6.97
2022-08-17T06:25:51.396Z,7.28
2022-08-17T06:26:38.561Z,7.55
2022-08-17T06:27:16.501Z,7.30
2022-08-17T06:27:58.234Z,7.35
2022-08-17T06:29:02.622Z,6.88
2022-08-17T06:30:00.348Z,6.22
2022-08-17T06:30:59.194Z,6.60
2022-08-17T06:31:35.513Z,6.40
2022-08-17T06:32:12.662Z,6.65
2022-08-17T06:32:47.483Z,7.70
2022-08-17T06:33:25.984Z,6.68
2022-08-17T06:34:00.301Z,5.75
2022-08-17T06:34:33.889Z,5.45
2022-08-17T06:35:09.337Z,5.03
2022-08-17T06:35:49.384Z,5.28
2022-08-17T06:36:37.319Z,5.15
2022-08-17T06:37:24.436Z,4.72
2022-08-17T06:38:37.655Z,5.40
2022-08-17T06:39:32.391Z,4.72
2022-08-17T06:40:49.588Z,4.53
2022-08-17T06:41:45.185Z,4.95
2022-08-17T06:42:55.042Z,4.65
2022-08-17T06:43:44.033Z,5.35
2022-08-17T06:44:43.669Z,5.10
2022-08-17T06:45:41.851Z,5.35
2022-08-17T06:46:23.478Z,4.80
2022-08-17T06:47:05.150Z,4.88
2022-08-17T06:47:47.601Z,5.50
2022-08-17T06:48:31.149Z,6.00
2022-08-17T06:49:14.132Z,4.80
2022-08-17T06:49:55.541Z,5.18
2022-08-17T06:50:41.003Z,5.18
2022-08-17T06:51:24.640Z,4.93
2022-08-17T06:52:42.197Z,5.10
2022-08-17T06:53:29.345Z,5.68
2022-08-17T06:54:20.340Z,4.95
2022-08-17T06:55:05.172Z,5.03
2022-08-17T06:55:55.893Z,5.43
2022-08-17T06:56:53.713Z,5.10
2022-08-17T06:57:30.585Z,5.70
2022-08-17T06:58:16.021Z,5.68
2022-08-17T06:58:49.588Z,5.93
2022-08-17T06:59:54.965Z,6.47
2022-08-17T07:00:28.848Z,5.75
2022-08-17T07:01:08.351Z,5.25
2022-08-17T07:01:41.817Z,6.47
2022-08-17T07:02:29.315Z,5.75
2022-08-17T07:03:39.862Z,5.65
2022-08-17T07:04:23.018Z,6.00
2022-08-17T07:04:54.945Z,6.18
2022-08-17T07:05:33.998Z,7.72
2022-08-17T07:06:14.580Z,6.22
2022-08-17T07:06:58.821Z,6.85
2022-08-17T07:07:51.757Z,6.15
2022-08-17T07:08:37.998Z,6.40
2022-08-17T07:09:31.073Z,6.60
2022-08-17T07:10:02.971Z,7.38
2022-08-17T07:10:40.809Z,6.70
2022-08-17T07:11:20.611Z,6.78
2022-08-17T07:11:59.517Z,6.65
2022-08-17T07:12:39.418Z,8.07
2022-08-17T07:13:22.963Z,7.32
2022-08-17T07:14:17.130Z,7.15
2022-08-17T07:14:54.108Z,7.15
2022-08-17T07:15:39.748Z,7.30
2022-08-17T07:16:24.159Z,7.28
2022-08-17T07:16:58.496Z,6.63
2022-08-17T07:17:46.508Z,6.97
2022-08-17T07:18:28.828Z,7.35
2022-08-17T07:19:00.907Z,6.95
2022-08-17T07:19:35.235Z,7.07
2022-08-17T07:20:11.117Z,7.43
2022-08-17T07:20:49.373Z,7.03
2022-08-17T07:21:43.743Z,7.32
2022-08-17T07:22:50.623Z,6.72
2022-08-17T07:23:44.313Z,6.70
2022-08-17T07:24:39.175Z,7.38
2022-08-17T07:25:12.912Z,6.57
2022-08-17T07:25:49.852Z,7.13
2022-08-17T07:26:24.260Z,5.97
2022-08-17T07:27:37.120Z,6.28
2022-08-17T07:28:08.980Z,6.30
2022-08-17T07:28:42.104Z,6.60
2022-08-17T07:29:17.436Z,7.15
2022-08-17T07:30:01.010Z,6.95
2022-08-17T07:30:47.252Z,7.03
2022-08-17T07:31:20.347Z,7.10
2022-08-17T07:31:54.106Z,7.85
2022-08-17T07:32:35.970Z,7.72
2022-08-17T07:33:14.604Z,8.18
2022-08-17T07:34:04.247Z,7.72
2022-08-17T07:35:15.509Z,7.90
2022-08-17T07:35:48.419Z,8.32
2022-08-17T07:36:29.657Z,7.55
2022-08-17T07:37:05.192Z,7.95
2022-08-17T07:37:40.100Z,6.90
2022-08-17T07:38:24.989Z,7.68
2022-08-17T07:38:58.383Z,6.55
2022-08-17T07:39:30.391Z,7.10
2022-08-17T07:40:34.388Z,7.03
2022-08-17T07:41:09.564Z,6.45
2022-08-17T07:41:53.111Z,6.35
2022-08-17T07:42:29.835Z,6.35
2022-08-17T07:43:23.365Z,6.68
2022-08-17T07:43:56.540Z,7.28
2022-08-17T07:44:28.536Z,7.55
2022-08-17T07:45:22.807Z,6.90
2022-08-17T07:46:34.703Z,6.60
2022-08-17T07:47:45.891Z,6.93
2022-08-17T07:48:57.549Z,7.13
2022-08-17T07:49:32.057Z,6.53
2022-08-17T07:50:25.883Z,7.45
2022-08-17T07:51:00.151Z,6.32
2022-08-17T07:51:36.514Z,6.82
2022-08-17T07:52:24.131Z,5.82
2022-08-17T07:53:32.452Z,6.32
2022-08-17T07:54:24.603Z,5.70
2022-08-17T07:54:57.562Z,6.30
2022-08-17T07:55:34.928Z,5.47
2022-08-17T07:56:06.901Z,5.32
2022-08-17T07:56:41.166Z,6.32
2022-08-17T07:57:12.880Z,6.00
2022-08-17T07:57:55.642Z,5.70
2022-08-17T07:58:27.490Z,5.07
2022-08-17T07:59:11.245Z,5.78
2022-08-17T08:00:12.779Z,5.18
2022-08-17T08:01:08.115Z,6.28
2022-08-17T08:01:42.048Z,5.15
2022-08-17T08:02:16.293Z,6.43
2022-08-17T08:03:20.608Z,5.57
2022-08-17T08:03:54.534Z,5.68
2022-08-17T08:05:00.214Z,6.10
2022-08-17T08:05:50.286Z,6.13
2022-08-17T08:06:25.019Z,5.78
2022-08-17T08:07:01.379Z,5.53
2022-08-17T08:07:42.466Z,5.90
2022-08-17T08:08:28.033Z,5.43
2022-08-17T08:09:00.885Z,6.10
2022-08-17T08:09:38.595Z,5.10
2022-08-17T08:10:32.266Z,5.20
2022-08-17T08:11:10.855Z,5.47
2022-08-17T08:11:44.452Z,5.47
2022-08-17T08:12:33.797Z,5.40
2022-08-17T08:13:08.816Z,4.97
2022-08-17T08:13:46.055Z,4.95
2022-08-17T08:14:28.661Z,5.22
2022-08-17T08:15:12.453Z,5.15
2022-08-17T08:15:54.235Z,5.60
2022-08-17T08:16:32.185Z,5.03
2022-08-17T08:17:09.332Z,6.07
2022-08-17T08:17:57.581Z,5.32
2022-08-17T08:18:53.720Z,5.80
2022-08-17T08:19:21.624Z,6.30
2022-08-17T08:19:53.834Z,5.15
2022-08-17T08:20:53.482Z,5.82
2022-08-17T08:21:52.627Z,5.72
2022-08-17T08:22:33.660Z,5.25
2022-08-17T08:23:16.836Z,5.20
2022-08-17T08:24:22.205Z,5.57
2022-08-17T08:25:14.901Z,5.80
2022-08-17T08:26:18.939Z,4.80
2022-08-17T08:27:07.199Z,5.03
2022-08-17T08:27:50.146Z,5.57
2022-08-17T08:28:44.969Z,6.25
2022-08-17T08:29:41.418Z,5.38
2022-08-17T08:30:19.693Z,6.10
2022-08-17T08:31:03.426Z,5.43
2022-08-17T08:32:09.383Z,5.85
2022-08-17T08:33:06.870Z,6.20
2022-08-17T08:33:51.800Z,5.40
2022-08-17T08:35:02.046Z,6.15
2022-08-17T08:35:55.564Z,5.82
2022-08-17T08:37:15.991Z,5.15
2022-08-17T08:37:39.087Z,4.75
2022-08-17T08:38:46.025Z,5.50
2022-08-17T08:39:23.341Z,5.30